Time;durP1;ratioP1;P1;durP2;ratioP2;P2;SDS_P1;SDS_P2;PMS_P1;PMS_P2;Temp;Humidity;BMP_temperature;BMP_pressure;BME280_temperature;BME280_humidity;BME280_pressure;Samples;Min_cycle;Max_cycle;Signal;HPM_P1;HPM_P2
2022/03/21 00:00:36;;;;;;;9.95;5.45;;;;;;;;;;5051551;28;20033;-63
2022/03/21 00:03:03;;;;;;;9.15;5.57;;;;;;;;;;5051471;28;20040;-61
2022/03/21 00:05:30;;;;;;;7.88;4.88;;;;;;;;;;5051627;28;20025;-61
2022/03/21 00:07:56;;;;;;;8.98;5.63;;;;;;;;;;5048878;28;20021;-62
2022/03/21 00:10:23;;;;;;;8.73;5.15;;;;;;;;;;5031906;28;20056;-66
2022/03/21 00:12:51;;;;;;;9.07;5.38;;;;;;;;;;5031822;28;20481;-61
2022/03/21 00:15:17;;;;;;;10.45;4.88;;;;;;;;;;5031846;28;20032;-65
2022/03/21 00:17:44;;;;;;;9.52;5.15;;;;;;;;;;5031710;28;20033;-62
2022/03/21 00:20:15;;;;;;;8.85;4.95;;;;;;;;;;5031147;28;20444;-61
2022/03/21 00:22:42;;;;;;;7.97;4.77;;;;;;;;;;5030973;28;20036;-61
2022/03/21 00:25:08;;;;;;;8.98;5.15;;;;;;;;;;5030944;28;20075;-63
2022/03/21 00:27:39;;;;;;;10.43;5.22;;;;;;;;;;5030774;28;20013;-62
2022/03/21 00:30:06;;;;;;;9.27;5.68;;;;;;;;;;5030599;28;20427;-61
2022/03/21 00:32:32;;;;;;;8.73;5.10;;;;;;;;;;5030611;28;20060;-63
2022/03/21 00:34:58;;;;;;;8.73;5.10;;;;;;;;;;5030929;28;20056;-64
2022/03/21 00:37:26;;;;;;;8.73;4.82;;;;;;;;;;5030897;28;20026;-62
2022/03/21 00:39:52;;;;;;;9.90;4.97;;;;;;;;;;5034519;28;20009;-62
2022/03/21 00:42:18;;;;;;;8.57;4.70;;;;;;;;;;5050044;28;20025;-61
2022/03/21 00:44:44;;;;;;;10.63;5.95;;;;;;;;;;5034830;28;20024;-61
2022/03/21 00:47:11;;;;;;;10.02;5.47;;;;;;;;;;5034747;28;20013;-62
2022/03/21 00:49:37;;;;;;;9.00;5.32;;;;;;;;;;5049998;28;20065;-61
2022/03/21 00:52:03;;;;;;;8.63;5.32;;;;;;;;;;5034762;28;20075;-61
2022/03/21 00:54:29;;;;;;;8.80;5.05;;;;;;;;;;5034857;28;20029;-61
2022/03/21 00:56:55;;;;;;;9.20;4.72;;;;;;;;;;5034884;28;20588;-64
2022/03/21 00:59:21;;;;;;;8.65;4.80;;;;;;;;;;5034452;28;20024;-63
2022/03/21 01:01:47;;;;;;;9.65;5.63;;;;;;;;;;5034670;28;20107;-62
2022/03/21 01:04:13;;;;;;;8.65;4.80;;;;;;;;;;5034545;28;20057;-62
2022/03/21 01:06:39;;;;;;;8.55;5.22;;;;;;;;;;5034560;28;20025;-64
2022/03/21 01:09:05;;;;;;;8.80;5.18;;;;;;;;;;5034420;28;20087;-62
2022/03/21 01:11:31;;;;;;;8.30;5.00;;;;;;;;;;5034851;28;20025;-61
2022/03/21 01:13:57;;;;;;;8.75;5.40;;;;;;;;;;5034361;28;20072;-64
2022/03/21 01:16:23;;;;;;;9.18;4.97;;;;;;;;;;5034650;28;20025;-61
2022/03/21 01:18:49;;;;;;;9.68;5.60;;;;;;;;;;5034625;28;20018;-64
2022/03/21 01:21:15;;;;;;;8.48;4.95;;;;;;;;;;5034397;28;20040;-61
2022/03/21 01:23:41;;;;;;;7.80;5.00;;;;;;;;;;5034585;28;20028;-64
2022/03/21 01:26:07;;;;;;;9.18;5.30;;;;;;;;;;5034623;28;20022;-62
2022/03/21 01:28:34;;;;;;;9.38;4.82;;;;;;;;;;5034486;28;20074;-62
2022/03/21 01:31:00;;;;;;;10.02;5.72;;;;;;;;;;5034491;28;20026;-63
2022/03/21 01:33:27;;;;;;;8.55;5.60;;;;;;;;;;5034253;28;20028;-64
2022/03/21 01:35:53;;;;;;;8.90;5.20;;;;;;;;;;5034090;28;20329;-61
2022/03/21 01:38:19;;;;;;;11.70;6.07;;;;;;;;;;5034106;28;20156;-61
2022/03/21 01:40:45;;;;;;;10.00;5.15;;;;;;;;;;5034126;28;20427;-62
2022/03/21 01:43:12;;;;;;;11.13;5.57;;;;;;;;;;5034394;28;20504;-61
2022/03/21 01:45:39;;;;;;;9.25;4.82;;;;;;;;;;5034141;28;20030;-62
2022/03/21 01:48:05;;;;;;;8.02;4.65;;;;;;;;;;5034280;28;20026;-65
2022/03/21 01:50:31;;;;;;;7.45;4.65;;;;;;;;;;5033206;28;20076;-61
2022/03/21 01:55:48;;;;;;;7.28;4.43;;;;;;;;;;5032776;28;20045;-63
2022/03/21 01:58:14;;;;;;;9.73;5.20;;;;;;;;;;5034032;28;20018;-63
2022/03/21 02:00:45;;;;;;;8.55;5.38;;;;;;;;;;5033926;28;20083;-61
2022/03/21 02:03:11;;;;;;;8.07;4.65;;;;;;;;;;5033840;28;20069;-61
2022/03/21 02:05:38;;;;;;;7.55;4.65;;;;;;;;;;5033802;28;20080;-62
2022/03/21 02:08:05;;;;;;;9.02;5.07;;;;;;;;;;5045857;28;20109;-65
2022/03/21 02:10:31;;;;;;;9.55;5.05;;;;;;;;;;5034024;28;20067;-61
2022/03/21 02:12:57;;;;;;;8.05;4.90;;;;;;;;;;5033862;28;20048;-60
2022/03/21 02:15:23;;;;;;;8.45;4.88;;;;;;;;;;5033758;28;20041;-60
2022/03/21 02:17:53;;;;;;;8.10;4.70;;;;;;;;;;5033186;28;20025;-65
2022/03/21 02:20:19;;;;;;;8.30;4.78;;;;;;;;;;5033201;28;20117;-63
2022/03/21 02:22:53;;;;;;;8.20;5.00;;;;;;;;;;5032949;28;20108;-61
2022/03/21 02:25:21;;;;;;;8.88;5.13;;;;;;;;;;5032985;28;20049;-62
2022/03/21 02:27:48;;;;;;;8.10;4.88;;;;;;;;;;5033415;28;20033;-61
2022/03/21 02:30:15;;;;;;;9.30;4.40;;;;;;;;;;5033896;28;20025;-61
2022/03/21 02:32:41;;;;;;;7.00;4.38;;;;;;;;;;5033631;28;20030;-60
2022/03/21 02:35:09;;;;;;;7.80;4.65;;;;;;;;;;5033390;28;20040;-60
2022/03/21 02:37:36;;;;;;;8.95;4.80;;;;;;;;;;5033431;28;20053;-60
2022/03/21 02:40:03;;;;;;;8.52;4.75;;;;;;;;;;5032851;28;20022;-60
2022/03/21 02:42:29;;;;;;;10.00;5.13;;;;;;;;;;5032587;28;20075;-64
2022/03/21 02:44:56;;;;;;;8.60;5.03;;;;;;;;;;5032672;28;20488;-61
2022/03/21 02:47:22;;;;;;;9.13;4.90;;;;;;;;;;5032686;28;20095;-60
2022/03/21 02:49:49;;;;;;;8.63;4.90;;;;;;;;;;5032504;28;20024;-60
2022/03/21 02:52:16;;;;;;;9.05;5.00;;;;;;;;;;5032641;28;20076;-60
2022/03/21 02:54:42;;;;;;;7.60;4.88;;;;;;;;;;5031152;28;20033;-61
2022/03/21 02:57:08;;;;;;;7.57;5.20;;;;;;;;;;5045974;28;20029;-62
2022/03/21 02:59:34;;;;;;;7.05;4.47;;;;;;;;;;5050502;28;20040;-62
2022/03/21 03:02:00;;;;;;;9.23;4.57;;;;;;;;;;5050374;28;20718;-61
2022/03/21 03:04:26;;;;;;;7.97;4.90;;;;;;;;;;5051062;28;20122;-61
2022/03/21 03:06:53;;;;;;;9.00;5.07;;;;;;;;;;5052783;28;20056;-63
2022/03/21 03:09:19;;;;;;;7.30;4.95;;;;;;;;;;5052666;28;20036;-62
2022/03/21 03:11:45;;;;;;;9.02;4.90;;;;;;;;;;5052581;28;20017;-62
2022/03/21 03:14:11;;;;;;;9.30;5.00;;;;;;;;;;5052609;28;20098;-62
2022/03/21 03:16:37;;;;;;;8.68;4.72;;;;;;;;;;5052442;28;20024;-65
2022/03/21 03:19:04;;;;;;;8.13;5.15;;;;;;;;;;5052295;28;20081;-61
2022/03/21 03:21:34;;;;;;;8.68;4.80;;;;;;;;;;5052215;28;20064;-61
2022/03/21 03:24:01;;;;;;;8.95;4.75;;;;;;;;;;5052331;28;20150;-61
2022/03/21 03:26:27;;;;;;;7.55;4.57;;;;;;;;;;5052214;28;20013;-63
2022/03/21 03:28:53;;;;;;;7.65;4.47;;;;;;;;;;5052192;28;20088;-62
2022/03/21 03:31:19;;;;;;;9.45;5.00;;;;;;;;;;5052391;28;20047;-63
2022/03/21 03:33:46;;;;;;;7.53;4.38;;;;;;;;;;5052271;28;20005;-62
2022/03/21 03:36:15;;;;;;;7.70;4.57;;;;;;;;;;5051965;28;20139;-63
2022/03/21 03:38:42;;;;;;;11.77;4.47;;;;;;;;;;5052058;28;20028;-61
2022/03/21 03:41:09;;;;;;;7.78;4.75;;;;;;;;;;5052043;28;20138;-65
2022/03/21 03:43:36;;;;;;;10.75;4.78;;;;;;;;;;5052216;28;20024;-64
2022/03/21 03:46:02;;;;;;;9.65;5.20;;;;;;;;;;5052105;28;20029;-65
2022/03/21 03:48:28;;;;;;;8.27;5.00;;;;;;;;;;5052099;28;20021;-62
2022/03/21 03:50:55;;;;;;;7.75;4.60;;;;;;;;;;5067349;28;20472;-61
2022/03/21 03:53:21;;;;;;;8.50;4.60;;;;;;;;;;5052081;28;20113;-60
2022/03/21 03:55:47;;;;;;;7.43;4.82;;;;;;;;;;5051813;28;20078;-61
2022/03/21 03:58:13;;;;;;;7.53;4.53;;;;;;;;;;5051923;28;20029;-61
2022/03/21 04:00:39;;;;;;;7.38;4.43;;;;;;;;;;5051622;28;20043;-62
2022/03/21 04:05:50;;;;;;;8.23;4.47;;;;;;;;;;5052162;28;20495;-63
2022/03/21 04:08:17;;;;;;;7.57;4.60;;;;;;;;;;5050488;28;20049;-62
2022/03/21 04:10:43;;;;;;;7.95;4.85;;;;;;;;;;5051762;28;20064;-61
2022/03/21 04:13:09;;;;;;;9.13;4.47;;;;;;;;;;5052776;28;20018;-63
2022/03/21 04:15:35;;;;;;;8.85;4.82;;;;;;;;;;5055997;28;20029;-65
2022/03/21 04:18:02;;;;;;;7.32;4.47;;;;;;;;;;5055740;28;20029;-61
2022/03/21 04:20:31;;;;;;;9.05;5.38;;;;;;;;;;5055561;28;20484;-62
2022/03/21 04:22:57;;;;;;;8.65;4.72;;;;;;;;;;5055644;28;20527;-65
2022/03/21 04:25:23;;;;;;;8.25;4.78;;;;;;;;;;5055649;28;20036;-66
2022/03/21 04:27:49;;;;;;;7.50;4.65;;;;;;;;;;5055494;28;20121;-66
2022/03/21 04:30:16;;;;;;;7.53;4.55;;;;;;;;;;5055175;28;20021;-62
2022/03/21 04:32:43;;;;;;;8.65;4.78;;;;;;;;;;5055430;28;20025;-62
2022/03/21 04:35:10;;;;;;;8.52;4.97;;;;;;;;;;5055300;28;20125;-65
2022/03/21 04:37:36;;;;;;;8.55;5.20;;;;;;;;;;5055370;28;20021;-63
2022/03/21 04:40:02;;;;;;;10.55;4.72;;;;;;;;;;5055178;28;20031;-65
2022/03/21 04:42:28;;;;;;;7.95;4.70;;;;;;;;;;5055201;28;20192;-64
2022/03/21 04:44:54;;;;;;;8.63;5.10;;;;;;;;;;5055086;28;20024;-64
2022/03/21 04:47:21;;;;;;;7.78;4.50;;;;;;;;;;5054782;28;20507;-62
2022/03/21 04:49:48;;;;;;;7.97;4.85;;;;;;;;;;5055221;28;20427;-61
2022/03/21 04:52:14;;;;;;;9.13;4.90;;;;;;;;;;5055202;28;20029;-64
2022/03/21 04:54:40;;;;;;;8.55;4.82;;;;;;;;;;5055184;28;20025;-64
2022/03/21 04:57:08;;;;;;;7.65;4.72;;;;;;;;;;5054529;28;20025;-62
2022/03/21 04:59:34;;;;;;;8.55;4.60;;;;;;;;;;5054564;28;20059;-62
2022/03/21 05:02:01;;;;;;;7.53;4.70;;;;;;;;;;5054188;28;20488;-65
2022/03/21 05:04:27;;;;;;;7.97;5.05;;;;;;;;;;5069590;28;20476;-62
2022/03/21 05:06:54;;;;;;;8.30;4.93;;;;;;;;;;5054284;28;20028;-66
2022/03/21 05:09:20;;;;;;;9.30;5.20;;;;;;;;;;5054198;28;20413;-62
2022/03/21 05:11:46;;;;;;;9.23;5.10;;;;;;;;;;5069531;28;20035;-66
2022/03/21 05:14:12;;;;;;;9.05;5.03;;;;;;;;;;5054316;28;20098;-63
2022/03/21 05:16:38;;;;;;;7.47;4.50;;;;;;;;;;5054183;28;20032;-64
2022/03/21 05:19:05;;;;;;;8.65;4.78;;;;;;;;;;5054064;28;20075;-65
2022/03/21 05:21:31;;;;;;;10.38;5.00;;;;;;;;;;5053968;28;20037;-63
2022/03/21 05:32:10;;;;;;;10.27;5.10;;;;;;;;;;5034082;28;20079;-62
2022/03/21 05:37:21;;;;;;;9.93;4.70;;;;;;;;;;5033702;28;20075;-61
2022/03/21 05:42:32;;;;;;;7.80;4.72;;;;;;;;;;5033845;28;20098;-63
2022/03/21 05:44:58;;;;;;;6.88;4.55;;;;;;;;;;5033692;28;20100;-64
2022/03/21 05:47:24;;;;;;;9.20;4.82;;;;;;;;;;5033711;28;20032;-62
2022/03/21 05:49:51;;;;;;;8.25;4.57;;;;;;;;;;5033903;28;20022;-62
2022/03/21 05:52:17;;;;;;;8.05;4.53;;;;;;;;;;5034043;28;20062;-62
2022/03/21 05:54:43;;;;;;;9.70;4.38;;;;;;;;;;5033427;28;20032;-63
2022/03/21 05:57:09;;;;;;;7.82;4.45;;;;;;;;;;5033414;28;20104;-65
2022/03/21 06:02:20;;;;;;;7.97;4.55;;;;;;;;;;5033200;28;20051;-64
2022/03/21 06:04:47;;;;;;;11.20;4.60;;;;;;;;;;5033234;28;20028;-62
2022/03/21 06:07:15;;;;;;;7.32;4.43;;;;;;;;;;5033645;28;20017;-65
2022/03/21 06:09:41;;;;;;;7.18;4.30;;;;;;;;;;5033685;28;20105;-62
2022/03/21 06:12:07;;;;;;;8.02;4.25;;;;;;;;;;5033414;28;20021;-61
2022/03/21 06:14:34;;;;;;;8.82;4.28;;;;;;;;;;5033061;28;20045;-64
2022/03/21 06:17:00;;;;;;;10.52;5.18;;;;;;;;;;5048606;28;20028;-61
2022/03/21 06:19:26;;;;;;;8.10;4.53;;;;;;;;;;5032922;28;20025;-62
2022/03/21 06:21:52;;;;;;;7.57;4.50;;;;;;;;;;5033347;28;20041;-63
2022/03/21 06:24:18;;;;;;;9.07;4.55;;;;;;;;;;5033401;28;20105;-61
2022/03/21 06:26:45;;;;;;;10.88;5.13;;;;;;;;;;5033047;28;20057;-62
2022/03/21 06:29:11;;;;;;;9.82;5.93;;;;;;;;;;5032845;28;20466;-62
2022/03/21 06:31:38;;;;;;;9.60;5.13;;;;;;;;;;5033295;28;20037;-61
2022/03/21 06:34:04;;;;;;;8.88;5.13;;;;;;;;;;5033049;28;20021;-62
2022/03/21 06:36:30;;;;;;;16.73;5.63;;;;;;;;;;5032454;28;20097;-61
2022/03/21 06:38:56;;;;;;;9.68;5.70;;;;;;;;;;5033267;28;20026;-62
2022/03/21 06:41:22;;;;;;;9.52;4.97;;;;;;;;;;5032903;28;20096;-64
2022/03/21 06:43:48;;;;;;;12.13;6.35;;;;;;;;;;5032888;28;20512;-65
2022/03/21 06:46:14;;;;;;;15.75;6.85;;;;;;;;;;5048256;28;20036;-62
2022/03/21 06:48:40;;;;;;;13.65;6.28;;;;;;;;;;5032823;28;20080;-62
2022/03/21 06:51:06;;;;;;;9.38;5.63;;;;;;;;;;5040703;28;20035;-65
2022/03/21 06:53:32;;;;;;;9.75;5.43;;;;;;;;;;5052761;28;20469;-66
2022/03/21 06:55:58;;;;;;;9.68;6.20;;;;;;;;;;5052705;28;20021;-64
2022/03/21 06:58:24;;;;;;;11.30;6.00;;;;;;;;;;5052517;28;20025;-61
2022/03/21 07:00:51;;;;;;;15.63;6.43;;;;;;;;;;5052425;28;20028;-61
2022/03/21 07:03:17;;;;;;;12.40;6.10;;;;;;;;;;5052365;28;20060;-62
2022/03/21 07:05:43;;;;;;;10.95;5.88;;;;;;;;;;5052492;28;20027;-62
2022/03/21 07:08:09;;;;;;;13.85;6.43;;;;;;;;;;5052518;28;20494;-62
2022/03/21 07:10:40;;;;;;;11.23;6.53;;;;;;;;;;5036325;28;20029;-61
2022/03/21 07:13:06;;;;;;;11.68;6.13;;;;;;;;;;5032380;28;20108;-64
2022/03/21 07:15:32;;;;;;;13.27;6.45;;;;;;;;;;5032240;28;20480;-63
2022/03/21 07:17:59;;;;;;;11.75;5.97;;;;;;;;;;5031971;28;20033;-62
2022/03/21 07:20:28;;;;;;;12.60;5.28;;;;;;;;;;5032109;28;20109;-65
2022/03/21 07:22:55;;;;;;;11.77;6.28;;;;;;;;;;5032570;28;20694;-63
2022/03/21 07:25:21;;;;;;;11.48;6.47;;;;;;;;;;5032390;28;20032;-66
2022/03/21 07:27:47;;;;;;;12.43;6.72;;;;;;;;;;5032086;28;20022;-65
2022/03/21 07:30:14;;;;;;;11.55;6.93;;;;;;;;;;5032125;28;20022;-63
2022/03/21 07:32:40;;;;;;;12.82;6.03;;;;;;;;;;5032484;28;20030;-64
2022/03/21 07:35:07;;;;;;;12.48;6.82;;;;;;;;;;5052087;28;20025;-64
2022/03/21 07:37:59;;;;;;;12.50;6.38;;;;;;;;;;5046270;28;20021;-64
2022/03/21 07:40:26;;;;;;;14.88;7.55;;;;;;;;;;5047698;28;20048;-63
2022/03/21 07:42:52;;;;;;;12.82;7.05;;;;;;;;;;5047649;28;20021;-62
2022/03/21 07:48:04;;;;;;;16.58;6.95;;;;;;;;;;5030759;28;20035;-62
2022/03/21 07:50:30;;;;;;;13.75;6.38;;;;;;;;;;5031936;28;20029;-62
2022/03/21 07:52:58;;;;;;;11.90;6.00;;;;;;;;;;5031981;28;20022;-65
2022/03/21 07:55:24;;;;;;;12.35;6.75;;;;;;;;;;5038283;28;20096;-61
2022/03/21 07:57:50;;;;;;;11.65;6.47;;;;;;;;;;5051135;28;20021;-61
2022/03/21 08:00:17;;;;;;;12.18;6.20;;;;;;;;;;5051209;28;20029;-65
2022/03/21 08:02:43;;;;;;;10.65;6.43;;;;;;;;;;5066813;28;20511;-62
2022/03/21 08:05:10;;;;;;;12.82;6.43;;;;;;;;;;5051309;28;20024;-62
2022/03/21 08:07:36;;;;;;;10.20;5.93;;;;;;;;;;5051313;28;20400;-66
2022/03/21 08:10:05;;;;;;;14.02;6.88;;;;;;;;;;5051256;28;20013;-62
2022/03/21 08:12:31;;;;;;;16.00;7.38;;;;;;;;;;5051677;28;20082;-64
2022/03/21 08:14:59;;;;;;;11.60;5.80;;;;;;;;;;5051280;28;20025;-61
2022/03/21 08:17:26;;;;;;;10.38;6.43;;;;;;;;;;5051333;28;20151;-62
2022/03/21 08:19:52;;;;;;;9.90;5.80;;;;;;;;;;5051325;28;20017;-61
2022/03/21 08:22:20;;;;;;;10.35;6.05;;;;;;;;;;5051252;28;20033;-62
2022/03/21 08:24:46;;;;;;;11.98;5.72;;;;;;;;;;5051303;28;20017;-62
2022/03/21 08:27:14;;;;;;;11.18;6.10;;;;;;;;;;5045775;28;20052;-63
2022/03/21 08:29:40;;;;;;;11.40;5.60;;;;;;;;;;5030710;28;20018;-66
2022/03/21 08:32:07;;;;;;;11.10;6.25;;;;;;;;;;5038429;28;20380;-62
2022/03/21 08:34:33;;;;;;;11.80;6.63;;;;;;;;;;5065294;28;20029;-65
2022/03/21 08:36:59;;;;;;;12.10;7.10;;;;;;;;;;5050084;28;20071;-63
2022/03/21 08:39:25;;;;;;;9.50;5.38;;;;;;;;;;5050553;28;20025;-65
2022/03/21 08:41:52;;;;;;;11.15;6.43;;;;;;;;;;5050450;28;20037;-62
2022/03/21 08:44:19;;;;;;;12.38;6.63;;;;;;;;;;5050720;28;20021;-62
2022/03/21 08:46:46;;;;;;;12.65;8.27;;;;;;;;;;5050891;28;20033;-62
2022/03/21 08:49:24;;;;;;;18.30;8.00;;;;;;;;;;5050470;28;20030;-62
2022/03/21 08:51:51;;;;;;;14.13;6.93;;;;;;;;;;5050393;28;20017;-62
2022/03/21 08:54:17;;;;;;;16.88;6.82;;;;;;;;;;5050384;28;20070;-62
2022/03/21 08:56:43;;;;;;;17.83;7.10;;;;;;;;;;5051005;28;20106;-61
2022/03/21 08:59:09;;;;;;;14.93;6.57;;;;;;;;;;5067145;28;20032;-64
2022/03/21 09:01:35;;;;;;;15.70;6.57;;;;;;;;;;5054117;28;20040;-63
2022/03/21 09:04:02;;;;;;;13.80;6.13;;;;;;;;;;5054525;28;20036;-61
2022/03/21 09:06:28;;;;;;;17.05;6.47;;;;;;;;;;5054445;28;20025;-61
2022/03/21 09:08:55;;;;;;;11.82;6.07;;;;;;;;;;5040363;28;20104;-62
2022/03/21 09:11:23;;;;;;;17.05;6.78;;;;;;;;;;5050143;28;20049;-62
2022/03/21 09:13:49;;;;;;;14.52;6.45;;;;;;;;;;5054300;28;20029;-64
2022/03/21 09:16:16;;;;;;;13.98;6.85;;;;;;;;;;5054094;28;20108;-62
2022/03/21 09:18:43;;;;;;;12.45;6.50;;;;;;;;;;5054310;28;20025;-65
2022/03/21 09:21:09;;;;;;;14.35;6.85;;;;;;;;;;5053840;28;20569;-62
2022/03/21 09:23:35;;;;;;;11.98;6.55;;;;;;;;;;5053883;28;20013;-63
2022/03/21 09:26:03;;;;;;;12.05;6.15;;;;;;;;;;5054328;28;20090;-63
2022/03/21 09:28:30;;;;;;;11.75;6.15;;;;;;;;;;5053610;28;20040;-63
2022/03/21 09:30:56;;;;;;;12.52;6.10;;;;;;;;;;5054023;28;20071;-61
2022/03/21 09:33:22;;;;;;;12.77;5.90;;;;;;;;;;5053716;28;20017;-65
2022/03/21 09:35:49;;;;;;;12.35;6.85;;;;;;;;;;5053335;28;20498;-64
2022/03/21 09:38:15;;;;;;;13.55;6.25;;;;;;;;;;5053786;28;20044;-62
2022/03/21 09:40:42;;;;;;;12.00;6.70;;;;;;;;;;5054240;28;20067;-64
2022/03/21 09:43:08;;;;;;;13.38;6.78;;;;;;;;;;5053503;28;20029;-62
2022/03/21 09:45:36;;;;;;;13.93;6.13;;;;;;;;;;5054168;28;20124;-63
2022/03/21 09:48:09;;;;;;;15.40;6.57;;;;;;;;;;5053946;28;20037;-63
2022/03/21 09:50:36;;;;;;;16.02;7.03;;;;;;;;;;5053692;28;20025;-62
2022/03/21 09:53:03;;;;;;;11.35;5.95;;;;;;;;;;5053200;28;20541;-62
2022/03/21 09:55:29;;;;;;;11.88;6.60;;;;;;;;;;5053532;28;20029;-61
2022/03/21 09:57:55;;;;;;;12.60;6.50;;;;;;;;;;5053082;28;20372;-62
2022/03/21 10:00:21;;;;;;;122.43;13.13;;;;;;;;;;5052916;28;20029;-63
2022/03/21 10:02:48;;;;;;;103.40;12.35;;;;;;;;;;5053532;28;20051;-62
2022/03/21 10:05:33;;;;;;;65.03;7.90;;;;;;;;;;5034279;28;20481;-62
2022/03/21 10:08:13;;;;;;;41.50;8.15;;;;;;;;;;5031967;28;20064;-63
2022/03/21 10:10:39;;;;;;;35.58;8.70;;;;;;;;;;5032797;28;20080;-62
2022/03/21 10:13:11;;;;;;;52.97;7.97;;;;;;;;;;5033745;28;20029;-62
2022/03/21 10:15:37;;;;;;;23.58;6.95;;;;;;;;;;5033548;28;20028;-63
2022/03/21 10:18:12;;;;;;;35.05;7.50;;;;;;;;;;5033472;28;20018;-62
2022/03/21 10:20:39;;;;;;;24.40;7.53;;;;;;;;;;5033350;28;20725;-62
2022/03/21 10:23:16;;;;;;;23.50;6.93;;;;;;;;;;5033352;28;20072;-61
2022/03/21 10:25:42;;;;;;;26.10;7.05;;;;;;;;;;5032817;28;20021;-62
2022/03/21 10:28:08;;;;;;;43.83;8.10;;;;;;;;;;5033183;28;20480;-61
2022/03/21 10:30:42;;;;;;;28.45;7.25;;;;;;;;;;5033296;28;20026;-63
2022/03/21 10:33:08;;;;;;;23.90;6.68;;;;;;;;;;5046108;28;20691;-61
2022/03/21 10:35:44;;;;;;;17.92;6.80;;;;;;;;;;5051565;28;20749;-62
2022/03/21 10:38:10;;;;;;;25.83;7.03;;;;;;;;;;5051266;28;20109;-61
2022/03/21 10:40:37;;;;;;;17.77;6.88;;;;;;;;;;5052350;28;20061;-62
2022/03/21 10:43:07;;;;;;;20.67;7.00;;;;;;;;;;5053089;28;20075;-62
2022/03/21 10:45:42;;;;;;;15.07;5.43;;;;;;;;;;5053017;28;20060;-62
2022/03/21 10:48:18;;;;;;;18.90;6.07;;;;;;;;;;5052720;28;20036;-62
2022/03/21 10:50:46;;;;;;;19.42;6.38;;;;;;;;;;5051553;28;20400;-61
2022/03/21 10:53:34;;;;;;;19.60;5.93;;;;;;;;;;5052750;28;20021;-62
2022/03/21 10:56:00;;;;;;;21.90;6.85;;;;;;;;;;5052759;28;20017;-62
2022/03/21 10:58:37;;;;;;;17.08;6.28;;;;;;;;;;5052749;28;20044;-62
2022/03/21 11:01:12;;;;;;;14.77;5.78;;;;;;;;;;5052455;28;20112;-61
2022/03/21 11:03:41;;;;;;;13.70;6.00;;;;;;;;;;5045913;28;20029;-60
2022/03/21 11:06:08;;;;;;;13.23;5.72;;;;;;;;;;5032618;28;20554;-60
2022/03/21 11:08:35;;;;;;;11.77;5.22;;;;;;;;;;5032651;28;20055;-60
2022/03/21 11:11:02;;;;;;;14.18;6.18;;;;;;;;;;5032446;28;20025;-60
2022/03/21 11:13:29;;;;;;;15.60;6.30;;;;;;;;;;5032454;28;20061;-60
2022/03/21 11:15:56;;;;;;;13.50;6.18;;;;;;;;;;5032784;28;20299;-60
2022/03/21 11:18:23;;;;;;;11.38;5.50;;;;;;;;;;5032201;28;20518;-60
2022/03/21 11:20:49;;;;;;;12.27;5.57;;;;;;;;;;5032202;28;20073;-60
2022/03/21 11:23:15;;;;;;;13.20;5.03;;;;;;;;;;5032387;28;20029;-60
2022/03/21 11:25:46;;;;;;;9.32;4.90;;;;;;;;;;5032273;28;20492;-60
2022/03/21 11:28:15;;;;;;;12.77;5.40;;;;;;;;;;5032036;28;20041;-60
2022/03/21 11:30:44;;;;;;;10.77;5.95;;;;;;;;;;5032346;28;20028;-60
2022/03/21 11:33:20;;;;;;;11.15;5.93;;;;;;;;;;5032102;28;20435;-60
2022/03/21 11:36:06;;;;;;;10.43;5.22;;;;;;;;;;5032077;28;20025;-60
2022/03/21 11:38:36;;;;;;;9.90;4.70;;;;;;;;;;5031628;28;20030;-60
2022/03/21 11:41:12;;;;;;;10.45;5.68;;;;;;;;;;5031932;28;20030;-60
2022/03/21 11:43:39;;;;;;;11.90;5.38;;;;;;;;;;5032228;28;20021;-60
2022/03/21 11:46:34;;;;;;;9.27;4.97;;;;;;;;;;5032017;28;20033;-60
2022/03/21 11:49:04;;;;;;;10.77;4.97;;;;;;;;;;5031790;28;20047;-60
2022/03/21 11:51:43;;;;;;;10.55;5.60;;;;;;;;;;5031855;28;20030;-61
2022/03/21 11:54:25;;;;;;;10.82;4.68;;;;;;;;;;5031487;28;20021;-60
2022/03/21 11:56:52;;;;;;;10.00;4.63;;;;;;;;;;5031716;28;20548;-61
2022/03/21 11:59:34;;;;;;;8.23;5.00;;;;;;;;;;5031624;28;20061;-60
2022/03/21 12:02:22;;;;;;;9.25;4.43;;;;;;;;;;5031399;28;20041;-60
2022/03/21 12:05:06;;;;;;;9.27;5.25;;;;;;;;;;5031121;28;20025;-61
2022/03/21 12:07:33;;;;;;;7.68;4.30;;;;;;;;;;5031386;28;20228;-60
2022/03/21 12:10:00;;;;;;;8.35;4.57;;;;;;;;;;5031618;28;20458;-61
2022/03/21 12:12:51;;;;;;;9.20;5.03;;;;;;;;;;5031549;28;20025;-60
2022/03/21 12:15:18;;;;;;;10.48;4.40;;;;;;;;;;5028869;28;20034;-60
2022/03/21 12:17:49;;;;;;;8.98;4.20;;;;;;;;;;5031560;28;20029;-60
2022/03/21 12:20:18;;;;;;;11.68;4.75;;;;;;;;;;5031554;28;20087;-61
2022/03/21 12:22:47;;;;;;;9.10;4.35;;;;;;;;;;5031540;28;20028;-61
2022/03/21 12:25:28;;;;;;;7.63;4.57;;;;;;;;;;5031522;28;20465;-60
2022/03/21 12:27:57;;;;;;;11.57;4.80;;;;;;;;;;5031531;28;20030;-61
2022/03/21 12:30:32;;;;;;;9.93;4.47;;;;;;;;;;5031184;28;20030;-60
2022/03/21 12:33:05;;;;;;;11.02;4.80;;;;;;;;;;5031373;28;20092;-61
2022/03/21 12:35:31;;;;;;;7.13;4.20;;;;;;;;;;5033328;28;20031;-61
2022/03/21 12:38:09;;;;;;;7.75;4.20;;;;;;;;;;5035162;28;20037;-61
2022/03/21 12:40:36;;;;;;;7.40;4.35;;;;;;;;;;5035284;28;20472;-61
2022/03/21 12:43:03;;;;;;;7.40;4.15;;;;;;;;;;5035331;28;20388;-60
2022/03/21 12:45:29;;;;;;;8.60;4.45;;;;;;;;;;5035321;28;20026;-62
2022/03/21 12:48:04;;;;;;;7.70;4.10;;;;;;;;;;5035338;28;20025;-60
2022/03/21 12:50:31;;;;;;;11.18;4.57;;;;;;;;;;5034965;28;20029;-61
2022/03/21 12:52:58;;;;;;;7.72;3.50;;;;;;;;;;5035167;28;20048;-61
2022/03/21 12:55:25;;;;;;;7.50;4.22;;;;;;;;;;5034869;28;20025;-61
2022/03/21 12:57:55;;;;;;;6.65;3.80;;;;;;;;;;5034857;28;20045;-62
2022/03/21 13:00:21;;;;;;;7.32;3.80;;;;;;;;;;5033781;28;20334;-61
2022/03/21 13:02:47;;;;;;;6.40;3.83;;;;;;;;;;5034700;28;20053;-61
2022/03/21 13:11:04;;;;;;;6.97;3.97;;;;;;;;;;5033292;28;20030;-61
2022/03/21 13:13:43;;;;;;;7.03;3.85;;;;;;;;;;5034882;28;20022;-60
2022/03/21 13:16:09;;;;;;;7.53;4.25;;;;;;;;;;5034677;28;20025;-59
2022/03/21 13:18:39;;;;;;;7.30;4.03;;;;;;;;;;5034705;28;20037;-60
2022/03/21 13:21:06;;;;;;;8.80;4.50;;;;;;;;;;5034560;28;20038;-60
2022/03/21 13:23:33;;;;;;;7.43;4.25;;;;;;;;;;5034322;28;20411;-61
2022/03/21 13:26:12;;;;;;;7.90;3.72;;;;;;;;;;5034417;28;20017;-60
2022/03/21 13:28:39;;;;;;;8.02;4.50;;;;;;;;;;5034439;28;20472;-60
2022/03/21 13:31:11;;;;;;;7.00;3.65;;;;;;;;;;5034404;28;20495;-61
2022/03/21 13:33:38;;;;;;;8.18;4.00;;;;;;;;;;5034625;28;20059;-60
2022/03/21 13:36:05;;;;;;;7.50;3.83;;;;;;;;;;5033023;28;20374;-60
2022/03/21 13:38:32;;;;;;;8.57;4.22;;;;;;;;;;5034058;28;20026;-60
2022/03/21 13:40:58;;;;;;;7.00;4.07;;;;;;;;;;5034186;28;20033;-59
2022/03/21 13:43:28;;;;;;;7.10;3.92;;;;;;;;;;5033875;28;20030;-61
2022/03/21 13:45:54;;;;;;;7.13;3.90;;;;;;;;;;5032623;28;20022;-60
2022/03/21 13:48:39;;;;;;;6.90;4.03;;;;;;;;;;5033399;28;20024;-60
2022/03/21 13:51:07;;;;;;;6.50;3.65;;;;;;;;;;5033982;28;20100;-61
2022/03/21 13:53:37;;;;;;;7.35;3.90;;;;;;;;;;5033899;28;20060;-59
2022/03/21 13:56:03;;;;;;;8.63;3.70;;;;;;;;;;5033860;28;20029;-61
2022/03/21 13:58:31;;;;;;;7.03;3.88;;;;;;;;;;5033701;28;20040;-62
2022/03/21 14:00:57;;;;;;;7.70;3.92;;;;;;;;;;5033543;28;20033;-60
2022/03/21 14:03:38;;;;;;;7.97;4.25;;;;;;;;;;5033221;28;20146;-60
2022/03/21 14:06:05;;;;;;;9.18;3.55;;;;;;;;;;5033728;28;20488;-62
2022/03/21 14:08:32;;;;;;;9.07;3.95;;;;;;;;;;5033598;28;20072;-61
2022/03/21 14:11:09;;;;;;;7.93;3.92;;;;;;;;;;5033422;28;20074;-60
2022/03/21 14:13:48;;;;;;;7.85;4.20;;;;;;;;;;5031991;28;20091;-62
2022/03/21 14:16:14;;;;;;;7.57;3.85;;;;;;;;;;5033319;28;20076;-59
2022/03/21 14:18:52;;;;;;;9.55;4.43;;;;;;;;;;5033048;28;20045;-59
2022/03/21 14:21:18;;;;;;;9.07;3.70;;;;;;;;;;5031018;28;20527;-60
2022/03/21 14:23:44;;;;;;;7.47;3.50;;;;;;;;;;5032894;28;20037;-61
2022/03/21 14:28:54;;;;;;;12.57;4.00;;;;;;;;;;5033553;28;20064;-62
2022/03/21 14:31:20;;;;;;;9.30;3.92;;;;;;;;;;5033150;28;20076;-62
2022/03/21 14:33:47;;;;;;;6.95;3.67;;;;;;;;;;5033235;28;20025;-61
2022/03/21 14:36:13;;;;;;;8.05;3.60;;;;;;;;;;5033079;28;20425;-60
2022/03/21 14:38:41;;;;;;;6.25;3.47;;;;;;;;;;5032963;28;20028;-62
2022/03/21 14:41:08;;;;;;;6.20;3.30;;;;;;;;;;5035585;28;20106;-61
2022/03/21 14:43:35;;;;;;;6.18;3.28;;;;;;;;;;5033023;28;20151;-60
2022/03/21 14:46:04;;;;;;;7.97;3.67;;;;;;;;;;5033030;28;20037;-62
2022/03/21 14:48:30;;;;;;;7.35;3.55;;;;;;;;;;5032675;28;20097;-61
2022/03/21 14:50:59;;;;;;;6.55;3.53;;;;;;;;;;5032673;28;20029;-62
2022/03/21 14:53:26;;;;;;;6.65;3.50;;;;;;;;;;5032692;28;20138;-62
2022/03/21 14:55:52;;;;;;;7.38;3.42;;;;;;;;;;5032767;28;20551;-62
2022/03/21 14:58:19;;;;;;;8.68;3.42;;;;;;;;;;5037505;28;20100;-62
2022/03/21 15:00:45;;;;;;;6.45;3.17;;;;;;;;;;5033894;28;20028;-61
2022/03/21 15:03:11;;;;;;;7.57;4.03;;;;;;;;;;5035039;28;20396;-60
2022/03/21 15:05:38;;;;;;;10.13;3.80;;;;;;;;;;5052422;28;20051;-61
2022/03/21 15:08:05;;;;;;;5.45;3.20;;;;;;;;;;5052468;28;20086;-61
2022/03/21 15:10:33;;;;;;;6.57;3.40;;;;;;;;;;5052473;28;20085;-60
2022/03/21 15:12:59;;;;;;;10.25;3.42;;;;;;;;;;5052270;28;20021;-60
2022/03/21 15:15:27;;;;;;;6.95;3.15;;;;;;;;;;5040182;28;20026;-62